Terminal Aerodrome Forecast
Issued by NWS

Home | Current Version | Previous Version | Graphics & Text | Print | Product List | Glossary On
Versions: 1 2 3 4 5 6 7 8 9 10 11 12 13
213
FTUS43 KFGF 212320
TAFBJI
TAF
KBJI 212320Z 2200/2224 VRB06KT P6SM SCT250
     FM221600 30007KT P6SM SKC=

USA.gov is the U.S. government's official web portal to all federal, state and local government web resources and services.